Time;durP1;ratioP1;P1;durP2;ratioP2;P2;SDS_P1;SDS_P2;PMS_P1;PMS_P2;Temp;Humidity;BMP_temperature;BMP_pressure;BME280_temperature;BME280_humidity;BME280_pressure;Samples;Min_cycle;Max_cycle;Signal;HPM_P1;HPM_P2
2021/10/22 00:08:56;;;;;;;0.40;0.40;;;;;;;;;;5031213;28;20270;-66
2021/10/22 00:17:29;;;;;;;0.40;0.40;;;;;;;;;;5024219;28;20180;-66
2021/10/22 00:19:55;;;;;;;0.40;0.40;;;;;;;;;;5033754;28;20612;-65
2021/10/22 00:22:21;;;;;;;0.40;0.40;;;;;;;;;;5034468;28;20470;-66
2021/10/22 00:24:47;;;;;;;0.45;0.45;;;;;;;;;;5034869;28;20204;-65
2021/10/22 00:27:13;;;;;;;0.40;0.40;;;;;;;;;;5034970;28;20173;-65
2021/10/22 00:29:39;;;;;;;0.40;0.40;;;;;;;;;;5035259;28;20399;-66
2021/10/22 00:32:05;;;;;;;0.40;0.40;;;;;;;;;;5034594;28;20761;-66
2021/10/22 00:34:31;;;;;;;0.40;0.40;;;;;;;;;;5034981;28;20184;-66
2021/10/22 00:36:58;;;;;;;0.40;0.40;;;;;;;;;;5033886;28;20179;-65
2021/10/22 00:39:24;;;;;;;0.40;0.40;;;;;;;;;;5034757;28;20212;-66
2021/10/22 00:41:50;;;;;;;0.40;0.40;;;;;;;;;;5033972;28;20230;-66
2021/10/22 00:44:16;;;;;;;0.40;0.40;;;;;;;;;;5034036;28;20427;-66
2021/10/22 00:46:42;;;;;;;0.40;0.40;;;;;;;;;;5034725;28;20172;-66
2021/10/22 00:49:12;;;;;;;0.40;0.40;;;;;;;;;;5035050;28;20165;-66
2021/10/22 00:51:39;;;;;;;0.40;0.40;;;;;;;;;;5017138;28;20209;-66
2021/10/22 00:54:05;;;;;;;0.40;0.40;;;;;;;;;;5050056;22;20239;-67
2021/10/22 00:56:32;;;;;;;0.40;0.40;;;;;;;;;;5034016;28;20215;-67
2021/10/22 00:58:58;;;;;;;0.40;0.40;;;;;;;;;;5033645;28;20179;-66
2021/10/22 01:01:24;;;;;;;0.40;0.40;;;;;;;;;;5033805;28;20209;-66
2021/10/22 01:03:50;;;;;;;0.40;0.40;;;;;;;;;;5016415;28;20204;-66
2021/10/22 01:06:16;;;;;;;0.30;0.30;;;;;;;;;;5034011;28;20191;-66
2021/10/22 01:08:43;;;;;;;0.40;0.40;;;;;;;;;;5016276;28;20272;-65
2021/10/22 01:11:09;;;;;;;0.43;0.43;;;;;;;;;;5016207;28;20236;-66
2021/10/22 01:13:35;;;;;;;0.40;0.40;;;;;;;;;;5033720;28;20700;-66
2021/10/22 01:16:01;;;;;;;0.40;0.40;;;;;;;;;;5033546;28;20427;-65
2021/10/22 01:18:28;;;;;;;0.40;0.40;;;;;;;;;;5033814;28;20694;-66
2021/10/22 01:20:58;;;;;;;0.40;0.40;;;;;;;;;;5033955;28;20176;-66
2021/10/22 01:23:24;;;;;;;0.40;0.40;;;;;;;;;;5033591;28;20239;-66
2021/10/22 01:25:50;;;;;;;0.40;0.40;;;;;;;;;;5016135;28;20188;-66
2021/10/22 01:28:16;;;;;;;0.40;0.40;;;;;;;;;;5033538;28;20212;-66
2021/10/22 01:30:42;;;;;;;0.40;0.40;;;;;;;;;;5032891;28;20427;-65
2021/10/22 01:33:10;;;;;;;0.43;0.43;;;;;;;;;;5033312;28;20450;-66
2021/10/22 01:35:36;;;;;;;0.40;0.40;;;;;;;;;;5033855;28;20255;-66
2021/10/22 01:38:02;;;;;;;0.40;0.40;;;;;;;;;;5033558;28;20268;-66
2021/10/22 01:40:29;;;;;;;0.40;0.40;;;;;;;;;;5032811;28;20470;-65
2021/10/22 01:42:55;;;;;;;0.40;0.40;;;;;;;;;;5033184;28;20644;-66
2021/10/22 01:45:21;;;;;;;0.40;0.40;;;;;;;;;;5033660;28;20230;-66
2021/10/22 01:47:48;;;;;;;0.40;0.40;;;;;;;;;;5033300;28;20187;-66
2021/10/22 01:50:15;;;;;;;0.40;0.40;;;;;;;;;;5032830;28;20552;-65
2021/10/22 01:52:41;;;;;;;0.40;0.40;;;;;;;;;;5033093;28;20177;-65
2021/10/22 01:55:07;;;;;;;0.50;0.50;;;;;;;;;;5033265;28;20215;-66
2021/10/22 01:57:33;;;;;;;0.40;0.40;;;;;;;;;;5033103;28;20620;-66
2021/10/22 01:59:59;;;;;;;0.40;0.40;;;;;;;;;;5032745;28;20196;-66
2021/10/22 02:02:25;;;;;;;0.40;0.40;;;;;;;;;;5032709;28;20458;-65
2021/10/22 02:04:51;;;;;;;0.40;0.40;;;;;;;;;;5033062;28;20910;-66
2021/10/22 02:07:17;;;;;;;0.40;0.40;;;;;;;;;;5032941;28;20844;-65
2021/10/22 02:09:43;;;;;;;0.40;0.40;;;;;;;;;;5032651;28;20424;-66
2021/10/22 02:12:09;;;;;;;0.40;0.40;;;;;;;;;;5032723;28;20495;-65
2021/10/22 02:14:35;;;;;;;0.40;0.40;;;;;;;;;;5032814;28;20204;-66
2021/10/22 02:17:01;;;;;;;0.40;0.40;;;;;;;;;;5032494;28;20183;-65
2021/10/22 02:19:27;;;;;;;0.40;0.40;;;;;;;;;;5032485;28;20188;-66
2021/10/22 02:21:52;;;;;;;0.43;0.43;;;;;;;;;;5032060;28;20459;-65
2021/10/22 02:24:18;;;;;;;0.40;0.40;;;;;;;;;;5032584;28;20447;-65
2021/10/22 02:26:44;;;;;;;0.40;0.40;;;;;;;;;;5032448;28;20455;-66
2021/10/22 02:29:10;;;;;;;0.40;0.40;;;;;;;;;;5032279;28;20230;-65
2021/10/22 02:31:36;;;;;;;0.50;0.50;;;;;;;;;;5032473;28;20802;-66
2021/10/22 02:34:02;;;;;;;0.40;0.40;;;;;;;;;;5032001;28;20846;-65
2021/10/22 02:36:28;;;;;;;0.40;0.40;;;;;;;;;;5032360;28;20429;-65
2021/10/22 02:38:54;;;;;;;0.30;0.30;;;;;;;;;;5032202;28;20423;-66
2021/10/22 02:41:20;;;;;;;0.40;0.40;;;;;;;;;;5031987;28;20411;-65
2021/10/22 02:43:48;;;;;;;0.50;0.50;;;;;;;;;;5031592;28;20442;-65
2021/10/22 02:46:14;;;;;;;0.40;0.40;;;;;;;;;;5014584;28;20522;-66
2021/10/22 02:48:40;;;;;;;0.40;0.40;;;;;;;;;;5032049;28;20208;-66
2021/10/22 02:51:06;;;;;;;0.40;0.40;;;;;;;;;;5032218;28;20266;-66
2021/10/22 02:53:32;;;;;;;0.40;0.40;;;;;;;;;;5031687;28;20479;-65
2021/10/22 02:55:58;;;;;;;0.40;0.40;;;;;;;;;;5032429;28;20581;-66
2021/10/22 02:58:24;;;;;;;0.40;0.40;;;;;;;;;;5025483;28;20235;-65
2021/10/22 03:00:50;;;;;;;0.40;0.40;;;;;;;;;;5012248;28;20412;-65
2021/10/22 03:03:16;;;;;;;0.47;0.47;;;;;;;;;;5025925;28;20470;-66
2021/10/22 03:05:42;;;;;;;0.40;0.40;;;;;;;;;;5032120;28;20183;-65
2021/10/22 03:08:08;;;;;;;0.40;0.40;;;;;;;;;;5031901;28;20426;-66
2021/10/22 03:10:34;;;;;;;0.40;0.40;;;;;;;;;;5031523;28;20462;-66
2021/10/22 03:13:01;;;;;;;0.40;0.40;;;;;;;;;;5031246;28;20259;-66
2021/10/22 03:15:27;;;;;;;0.40;0.40;;;;;;;;;;5032171;28;20195;-66
2021/10/22 03:17:55;;;;;;;0.47;0.47;;;;;;;;;;5031576;28;20747;-66
2021/10/22 03:20:21;;;;;;;0.40;0.40;;;;;;;;;;5031766;28;20544;-66
2021/10/22 03:22:47;;;;;;;0.50;0.50;;;;;;;;;;5031428;28;20745;-66
2021/10/22 03:25:13;;;;;;;0.40;0.40;;;;;;;;;;5031719;28;20175;-65
2021/10/22 03:27:41;;;;;;;0.40;0.40;;;;;;;;;;5031364;28;20286;-66
2021/10/22 03:30:07;;;;;;;0.40;0.40;;;;;;;;;;5031546;28;20167;-66
2021/10/22 03:32:33;;;;;;;0.40;0.40;;;;;;;;;;5013811;28;20593;-66
2021/10/22 03:35:00;;;;;;;0.40;0.40;;;;;;;;;;5031734;28;20212;-65
2021/10/22 03:37:26;;;;;;;0.40;0.40;;;;;;;;;;5031148;28;20242;-66
2021/10/22 03:39:52;;;;;;;0.40;0.40;;;;;;;;;;5031442;28;20181;-66
2021/10/22 03:42:18;;;;;;;0.40;0.40;;;;;;;;;;5031127;28;20226;-66
2021/10/22 03:44:44;;;;;;;0.40;0.40;;;;;;;;;;5031324;28;20451;-66
2021/10/22 03:47:11;;;;;;;0.40;0.40;;;;;;;;;;5031560;28;20464;-65
2021/10/22 03:49:37;;;;;;;0.40;0.40;;;;;;;;;;5031699;28;20410;-66
2021/10/22 03:52:03;;;;;;;0.40;0.40;;;;;;;;;;5031088;28;20181;-66
2021/10/22 03:54:29;;;;;;;0.40;0.40;;;;;;;;;;5031108;28;20484;-66
2021/10/22 03:56:55;;;;;;;0.40;0.40;;;;;;;;;;5030766;28;20215;-66
2021/10/22 03:59:21;;;;;;;0.40;0.40;;;;;;;;;;5031375;28;20437;-66
2021/10/22 04:01:49;;;;;;;0.40;0.40;;;;;;;;;;5031089;28;20504;-66
2021/10/22 04:04:15;;;;;;;0.40;0.40;;;;;;;;;;5030744;28;20261;-66
2021/10/22 04:06:41;;;;;;;0.40;0.40;;;;;;;;;;5031493;28;20547;-66
2021/10/22 04:09:08;;;;;;;0.60;0.60;;;;;;;;;;5013506;28;20501;-66
2021/10/22 04:11:34;;;;;;;0.40;0.40;;;;;;;;;;5030620;28;20426;-67
2021/10/22 04:14:01;;;;;;;0.40;0.40;;;;;;;;;;5030656;28;20199;-66
2021/10/22 04:16:28;;;;;;;0.40;0.40;;;;;;;;;;5030973;28;20184;-66
2021/10/22 04:18:54;;;;;;;0.40;0.40;;;;;;;;;;5030993;28;20177;-67
2021/10/22 04:21:20;;;;;;;0.40;0.40;;;;;;;;;;5030861;28;20198;-66
2021/10/22 04:23:46;;;;;;;0.50;0.50;;;;;;;;;;5030484;28;20472;-66
2021/10/22 04:26:12;;;;;;;0.40;0.40;;;;;;;;;;5030765;28;20444;-66
2021/10/22 04:28:38;;;;;;;0.40;0.40;;;;;;;;;;5030548;28;20180;-67
2021/10/22 04:31:04;;;;;;;0.50;0.50;;;;;;;;;;5030367;28;20191;-67
2021/10/22 04:33:30;;;;;;;0.40;0.40;;;;;;;;;;5030786;28;20476;-66
2021/10/22 04:35:56;;;;;;;0.47;0.47;;;;;;;;;;5030797;28;21202;-66
2021/10/22 04:41:07;;;;;;;0.40;0.40;;;;;;;;;;5030860;28;20191;-66
2021/10/22 04:43:33;;;;;;;0.50;0.50;;;;;;;;;;5030411;28;20206;-68
2021/10/22 04:45:59;;;;;;;0.40;0.40;;;;;;;;;;5030904;28;20434;-65
2021/10/22 04:48:25;;;;;;;0.40;0.40;;;;;;;;;;5030812;28;20413;-66
2021/10/22 04:50:51;;;;;;;0.40;0.40;;;;;;;;;;5030825;28;20830;-66
2021/10/22 04:53:28;;;;;;;0.50;0.50;;;;;;;;;;5030308;28;20222;-66
2021/10/22 04:55:56;;;;;;;0.40;0.40;;;;;;;;;;5030749;28;20187;-66
2021/10/22 04:58:22;;;;;;;0.40;0.40;;;;;;;;;;5030797;28;20224;-67
2021/10/22 05:00:48;;;;;;;0.40;0.40;;;;;;;;;;5012324;28;20271;-67
2021/10/22 05:03:14;;;;;;;0.40;0.40;;;;;;;;;;5030380;28;20470;-67
2021/10/22 05:05:40;;;;;;;0.40;0.40;;;;;;;;;;5019378;28;20416;-67
2021/10/22 05:08:06;;;;;;;0.47;0.47;;;;;;;;;;5024741;28;20198;-67
2021/10/22 05:10:32;;;;;;;0.40;0.40;;;;;;;;;;5033749;28;20450;-67
2021/10/22 05:12:59;;;;;;;0.50;0.50;;;;;;;;;;5033896;28;20423;-67
2021/10/22 05:15:26;;;;;;;0.40;0.40;;;;;;;;;;5034155;28;20180;-67
2021/10/22 05:17:52;;;;;;;0.50;0.50;;;;;;;;;;5034036;28;20188;-68
2021/10/22 05:20:17;;;;;;;0.40;0.40;;;;;;;;;;5033292;28;20230;-67
2021/10/22 05:22:44;;;;;;;0.50;0.50;;;;;;;;;;5015873;28;20540;-67
2021/10/22 05:25:11;;;;;;;0.40;0.40;;;;;;;;;;5030118;28;20436;-67
2021/10/22 05:27:38;;;;;;;0.40;0.40;;;;;;;;;;5033755;28;20674;-67
2021/10/22 05:30:05;;;;;;;0.50;0.50;;;;;;;;;;5015323;28;20282;-68
2021/10/22 05:32:31;;;;;;;0.40;0.40;;;;;;;;;;5023750;28;20306;-67
2021/10/22 05:34:57;;;;;;;0.60;0.60;;;;;;;;;;5014059;28;20279;-67
2021/10/22 05:37:23;;;;;;;0.40;0.40;;;;;;;;;;5015023;28;20417;-67
2021/10/22 05:39:50;;;;;;;0.60;0.60;;;;;;;;;;5013995;28;20474;-67
2021/10/22 05:42:15;;;;;;;0.60;0.60;;;;;;;;;;5013842;28;20575;-66
2021/10/22 05:44:41;;;;;;;0.40;0.40;;;;;;;;;;5033417;28;20309;-67
2021/10/22 05:47:08;;;;;;;0.50;0.50;;;;;;;;;;5033576;28;20904;-68
2021/10/22 05:49:35;;;;;;;0.40;0.40;;;;;;;;;;5032711;28;20188;-67
2021/10/22 05:52:01;;;;;;;0.50;0.50;;;;;;;;;;5001514;28;20563;-67
2021/10/22 05:54:27;;;;;;;0.40;0.40;;;;;;;;;;5032634;28;20214;-67
2021/10/22 05:56:53;;;;;;;0.50;0.50;;;;;;;;;;5013797;28;20442;-67
2021/10/22 05:59:19;;;;;;;0.40;0.40;;;;;;;;;;5023262;28;20508;-67
2021/10/22 06:01:45;;;;;;;0.40;0.40;;;;;;;;;;5032591;28;20686;-67
2021/10/22 06:04:11;;;;;;;0.40;0.40;;;;;;;;;;5032721;28;20446;-68
2021/10/22 06:06:37;;;;;;;0.40;0.40;;;;;;;;;;5033452;28;20171;-68
2021/10/22 06:09:03;;;;;;;0.40;0.40;;;;;;;;;;5015638;28;20171;-68
2021/10/22 06:11:29;;;;;;;0.40;0.40;;;;;;;;;;5032379;28;20628;-68
2021/10/22 06:13:55;;;;;;;0.40;0.40;;;;;;;;;;5032709;28;20195;-67
2021/10/22 06:16:22;;;;;;;0.40;0.40;;;;;;;;;;5020080;28;20226;-67
2021/10/22 06:18:48;;;;;;;0.40;0.40;;;;;;;;;;4995582;28;20488;-67
2021/10/22 06:23:54;;;;;;;0.50;0.50;;;;;;;;;;5033055;28;20439;-67
2021/10/22 06:26:20;;;;;;;0.40;0.40;;;;;;;;;;5032639;28;20164;-67
2021/10/22 06:28:47;;;;;;;0.60;0.60;;;;;;;;;;5031838;28;20635;-67
2021/10/22 06:31:13;;;;;;;0.40;0.40;;;;;;;;;;5014010;28;20195;-67
2021/10/22 06:33:39;;;;;;;0.40;0.40;;;;;;;;;;5024945;28;20315;-67
2021/10/22 06:36:07;;;;;;;0.40;0.40;;;;;;;;;;5032860;28;20183;-68
2021/10/22 06:38:33;;;;;;;0.40;0.40;;;;;;;;;;5021363;28;20179;-67
2021/10/22 06:40:59;;;;;;;0.40;0.40;;;;;;;;;;5026899;28;20563;-67
2021/10/22 06:43:25;;;;;;;0.43;0.43;;;;;;;;;;5014364;28;20463;-68
2021/10/22 06:45:51;;;;;;;0.40;0.40;;;;;;;;;;5031564;28;20172;-67
2021/10/22 06:48:17;;;;;;;0.40;0.40;;;;;;;;;;5026722;28;20196;-67
2021/10/22 06:50:44;;;;;;;0.40;0.40;;;;;;;;;;5031990;28;20531;-67
2021/10/22 06:55:38;;;;;;;0.50;0.50;;;;;;;;;;4987143;28;20247;-66
2021/10/22 06:58:05;;;;;;;0.50;0.50;;;;;;;;;;4992118;28;20223;-66
2021/10/22 07:00:34;;;;;;;0.40;0.40;;;;;;;;;;4992647;28;20261;-66
2021/10/22 07:03:00;;;;;;;0.50;0.50;;;;;;;;;;4992742;28;20232;-66
2021/10/22 07:08:23;;;;;;;0.50;0.50;;;;;;;;;;4922878;28;20195;-66
2021/10/22 07:10:49;;;;;;;0.47;0.47;;;;;;;;;;4992213;28;20595;-66
2021/10/22 07:13:15;;;;;;;0.60;0.60;;;;;;;;;;4992742;28;20559;-66
2021/10/22 07:15:41;;;;;;;0.40;0.40;;;;;;;;;;4992726;28;20236;-66
2021/10/22 07:18:07;;;;;;;0.40;0.40;;;;;;;;;;4993023;28;20185;-66
2021/10/22 07:20:34;;;;;;;0.50;0.50;;;;;;;;;;4974367;28;20416;-66
2021/10/22 07:25:31;;;;;;;0.40;0.40;;;;;;;;;;4992632;28;20680;-66
2021/10/22 07:27:57;;;;;;;0.40;0.40;;;;;;;;;;4992147;28;20204;-66
2021/10/22 07:30:23;;;;;;;0.50;0.50;;;;;;;;;;4992302;28;20180;-67
2021/10/22 07:32:49;;;;;;;0.50;0.50;;;;;;;;;;4991990;28;20176;-66
2021/10/22 07:35:15;;;;;;;0.40;0.40;;;;;;;;;;4992454;28;20459;-66
2021/10/22 07:37:41;;;;;;;0.40;0.40;;;;;;;;;;4992322;28;20181;-66
2021/10/22 07:40:08;;;;;;;0.50;0.50;;;;;;;;;;4992266;28;20172;-66
2021/10/22 07:42:34;;;;;;;0.40;0.40;;;;;;;;;;4992087;28;20563;-66
2021/10/22 07:45:01;;;;;;;0.50;0.50;;;;;;;;;;4990329;28;20205;-66
2021/10/22 07:47:28;;;;;;;0.40;0.40;;;;;;;;;;4992338;28;20537;-66
2021/10/22 07:49:55;;;;;;;0.50;0.50;;;;;;;;;;4992224;28;20174;-66
2021/10/22 07:52:21;;;;;;;0.40;0.40;;;;;;;;;;4992316;28;20208;-66
2021/10/22 07:54:48;;;;;;;0.40;0.40;;;;;;;;;;4991184;28;20221;-66
2021/10/22 07:57:14;;;;;;;0.40;0.40;;;;;;;;;;4992273;28;20178;-66
2021/10/22 07:59:40;;;;;;;0.50;0.50;;;;;;;;;;4992081;28;20181;-66
2021/10/22 08:02:12;;;;;;;0.47;0.47;;;;;;;;;;4991741;28;20202;-66
2021/10/22 08:04:39;;;;;;;0.50;0.50;;;;;;;;;;4991745;28;20192;-66
2021/10/22 08:07:05;;;;;;;0.40;0.40;;;;;;;;;;4991964;28;20178;-66
2021/10/22 08:09:31;;;;;;;0.40;0.40;;;;;;;;;;4992334;28;20178;-66
2021/10/22 08:11:57;;;;;;;0.40;0.40;;;;;;;;;;4991966;28;20492;-66
2021/10/22 08:14:24;;;;;;;0.40;0.40;;;;;;;;;;4992066;28;20201;-66
2021/10/22 08:16:50;;;;;;;0.40;0.40;;;;;;;;;;4974600;28;20186;-66
2021/10/22 08:19:17;;;;;;;0.50;0.50;;;;;;;;;;4992622;28;20203;-66
2021/10/22 08:24:09;;;;;;;0.40;0.40;;;;;;;;;;4992078;28;20190;-66
2021/10/22 08:26:35;;;;;;;0.50;0.50;;;;;;;;;;4991477;28;20448;-66
2021/10/22 08:29:01;;;;;;;0.47;0.47;;;;;;;;;;4991545;28;20175;-67
2021/10/22 08:31:28;;;;;;;0.40;0.40;;;;;;;;;;4991692;28;20417;-66
2021/10/22 08:33:54;;;;;;;0.40;0.40;;;;;;;;;;4991774;28;20783;-66
2021/10/22 08:36:20;;;;;;;0.50;0.50;;;;;;;;;;4991873;28;20178;-66
2021/10/22 08:38:46;;;;;;;0.50;0.50;;;;;;;;;;4991342;28;20409;-67
2021/10/22 08:41:16;;;;;;;0.40;0.40;;;;;;;;;;4993773;28;20198;-66
2021/10/22 08:43:43;;;;;;;0.40;0.40;;;;;;;;;;4995295;28;20217;-66
2021/10/22 08:46:14;;;;;;;0.40;0.40;;;;;;;;;;4995627;28;20229;-66
2021/10/22 08:48:42;;;;;;;0.40;0.40;;;;;;;;;;4995666;28;20181;-66
2021/10/22 08:51:08;;;;;;;0.40;0.40;;;;;;;;;;4994816;28;20181;-66
2021/10/22 08:53:36;;;;;;;0.40;0.40;;;;;;;;;;4995230;28;20207;-66
2021/10/22 08:56:05;;;;;;;0.40;0.40;;;;;;;;;;4995564;28;20405;-67
2021/10/22 08:58:31;;;;;;;0.40;0.40;;;;;;;;;;4995393;28;20167;-66
2021/10/22 09:00:57;;;;;;;0.40;0.40;;;;;;;;;;4994757;28;20357;-66
2021/10/22 09:03:23;;;;;;;0.40;0.40;;;;;;;;;;4995131;28;20233;-66
2021/10/22 09:05:56;;;;;;;0.40;0.40;;;;;;;;;;4995427;28;20170;-66
2021/10/22 09:08:29;;;;;;;0.40;0.40;;;;;;;;;;4977838;28;20893;-66
2021/10/22 09:10:55;;;;;;;0.40;0.40;;;;;;;;;;4995205;28;20217;-67
2021/10/22 09:13:27;;;;;;;0.40;0.40;;;;;;;;;;4995571;28;20705;-66
2021/10/22 09:15:56;;;;;;;0.30;0.30;;;;;;;;;;4996152;28;20309;-66
2021/10/22 09:18:24;;;;;;;0.40;0.40;;;;;;;;;;4995664;28;20174;-67
2021/10/22 09:20:50;;;;;;;0.30;0.30;;;;;;;;;;4995186;28;20186;-66
2021/10/22 09:23:34;;;;;;;0.30;0.30;;;;;;;;;;4994744;28;20216;-66
2021/10/22 09:26:20;;;;;;;0.30;0.30;;;;;;;;;;4995177;28;20455;-66
2021/10/22 09:28:47;;;;;;;0.30;0.30;;;;;;;;;;4995069;28;20412;-66
2021/10/22 09:31:14;;;;;;;0.30;0.30;;;;;;;;;;4995020;28;20184;-66
2021/10/22 09:33:59;;;;;;;0.30;0.30;;;;;;;;;;4994669;28;20436;-66
2021/10/22 09:36:36;;;;;;;0.30;0.30;;;;;;;;;;4994784;28;20930;-66
2021/10/22 09:39:08;;;;;;;0.30;0.30;;;;;;;;;;4994696;28;20420;-67
2021/10/22 09:41:35;;;;;;;0.30;0.30;;;;;;;;;;4994447;28;20920;-66
2021/10/22 09:44:17;;;;;;;0.30;0.30;;;;;;;;;;4994457;28;20852;-66
2021/10/22 09:46:43;;;;;;;0.30;0.30;;;;;;;;;;4994926;28;20967;-65
2021/10/22 09:49:09;;;;;;;0.30;0.30;;;;;;;;;;4994555;28;20405;-67
2021/10/22 09:51:38;;;;;;;0.20;0.20;;;;;;;;;;4993781;28;20384;-67
2021/10/22 09:54:11;;;;;;;0.20;0.20;;;;;;;;;;4994127;28;20445;-67
2021/10/22 09:56:38;;;;;;;0.30;0.30;;;;;;;;;;4992259;28;20780;-67
2021/10/22 09:59:05;;;;;;;0.30;0.30;;;;;;;;;;4994305;28;20486;-67
2021/10/22 10:01:36;;;;;;;0.30;0.30;;;;;;;;;;4994055;28;20896;-67
2021/10/22 10:04:02;;;;;;;0.30;0.30;;;;;;;;;;4994178;28;20399;-67
2021/10/22 10:06:32;;;;;;;0.30;0.30;;;;;;;;;;4994387;28;20387;-67
2021/10/22 10:08:58;;;;;;;0.30;0.30;;;;;;;;;;4994157;28;20397;-66
2021/10/22 10:11:25;;;;;;;0.30;0.30;;;;;;;;;;4993770;28;20463;-67
2021/10/22 10:13:52;;;;;;;0.30;0.30;;;;;;;;;;4994190;28;20572;-67
2021/10/22 10:16:18;;;;;;;0.30;0.30;;;;;;;;;;4994319;28;20449;-67
2021/10/22 10:18:55;;;;;;;0.30;0.30;;;;;;;;;;4994261;28;20406;-67
2021/10/22 10:21:23;;;;;;;0.40;0.40;;;;;;;;;;4994022;28;20415;-67
2021/10/22 10:23:50;;;;;;;0.30;0.30;;;;;;;;;;4993778;28;20428;-67
2021/10/22 10:26:23;;;;;;;0.30;0.30;;;;;;;;;;4993319;28;20485;-67
2021/10/22 10:28:50;;;;;;;0.30;0.30;;;;;;;;;;4993115;28;20905;-67
2021/10/22 10:31:33;;;;;;;0.20;0.20;;;;;;;;;;4993440;28;20441;-67
2021/10/22 10:34:00;;;;;;;0.20;0.20;;;;;;;;;;4993554;28;20417;-66
2021/10/22 10:36:45;;;;;;;0.20;0.20;;;;;;;;;;4993661;28;20626;-66
2021/10/22 10:39:11;;;;;;;0.20;0.20;;;;;;;;;;4993521;28;20384;-66
2021/10/22 10:41:37;;;;;;;0.20;0.20;;;;;;;;;;4993187;28;20385;-66
2021/10/22 10:44:29;;;;;;;0.20;0.20;;;;;;;;;;4993235;28;20437;-66
2021/10/22 10:46:56;;;;;;;0.20;0.20;;;;;;;;;;4993748;28;20743;-66
2021/10/22 10:49:40;;;;;;;0.20;0.20;;;;;;;;;;4993463;28;20406;-66
2021/10/22 10:52:06;;;;;;;0.20;0.20;;;;;;;;;;4993084;28;20480;-66
2021/10/22 10:54:35;;;;;;;0.20;0.20;;;;;;;;;;4986008;28;20545;-66
2021/10/22 10:57:20;;;;;;;0.20;0.20;;;;;;;;;;4973684;28;20411;-66
2021/10/22 10:59:46;;;;;;;0.20;0.20;;;;;;;;;;4973703;28;20501;-66
2021/10/22 11:02:12;;;;;;;0.20;0.20;;;;;;;;;;4973381;28;20910;-66
2021/10/22 11:04:49;;;;;;;0.20;0.20;;;;;;;;;;4972879;28;20409;-66
2021/10/22 11:07:33;;;;;;;0.20;0.20;;;;;;;;;;4973673;28;20481;-66
2021/10/22 11:10:00;;;;;;;0.20;0.20;;;;;;;;;;4973406;28;20428;-66
2021/10/22 11:12:26;;;;;;;0.20;0.20;;;;;;;;;;4973341;28;20388;-66
2021/10/22 11:14:57;;;;;;;0.20;0.20;;;;;;;;;;4973335;28;20409;-66
2021/10/22 11:17:28;;;;;;;0.20;0.20;;;;;;;;;;4974451;28;20901;-66
2021/10/22 11:19:57;;;;;;;0.20;0.20;;;;;;;;;;4973508;28;20896;-66
2021/10/22 11:22:25;;;;;;;0.20;0.20;;;;;;;;;;4973204;28;20462;-66
2021/10/22 11:24:51;;;;;;;0.20;0.20;;;;;;;;;;4973090;28;20530;-66
2021/10/22 11:27:18;;;;;;;0.20;0.20;;;;;;;;;;4973237;28;20403;-66
2021/10/22 11:29:48;;;;;;;0.20;0.20;;;;;;;;;;4972744;28;20406;-66
2021/10/22 11:32:24;;;;;;;0.20;0.20;;;;;;;;;;4972963;28;20493;-66
2021/10/22 11:34:55;;;;;;;0.20;0.20;;;;;;;;;;4973000;28;20987;-66
2021/10/22 11:37:23;;;;;;;0.20;0.20;;;;;;;;;;4955807;28;20429;-67
2021/10/22 11:39:51;;;;;;;0.20;0.20;;;;;;;;;;4972880;28;20454;-67
2021/10/22 11:42:27;;;;;;;0.20;0.20;;;;;;;;;;4972689;28;20519;-66
2021/10/22 11:44:56;;;;;;;0.20;0.20;;;;;;;;;;4972839;28;20438;-66
2021/10/22 11:47:23;;;;;;;0.20;0.20;;;;;;;;;;4972886;28;20414;-66
2021/10/22 11:49:49;;;;;;;0.20;0.20;;;;;;;;;;4972911;28;20461;-66
2021/10/22 11:52:17;;;;;;;0.20;0.20;;;;;;;;;;4972763;28;20458;-66
2021/10/22 11:54:47;;;;;;;0.20;0.20;;;;;;;;;;4972653;28;20454;-66
2021/10/22 11:57:15;;;;;;;0.20;0.20;;;;;;;;;;4972848;28;20389;-66
2021/10/22 11:59:44;;;;;;;0.20;0.20;;;;;;;;;;4972831;28;20418;-66
2021/10/22 12:02:10;;;;;;;0.20;0.20;;;;;;;;;;4972445;28;20436;-66
2021/10/22 12:04:36;;;;;;;0.20;0.20;;;;;;;;;;4955310;28;21044;-65
2021/10/22 12:07:04;;;;;;;0.20;0.20;;;;;;;;;;4972727;28;20407;-66
2021/10/22 12:09:31;;;;;;;0.30;0.30;;;;;;;;;;4972754;28;20418;-66
2021/10/22 12:12:16;;;;;;;0.30;0.30;;;;;;;;;;4972448;28;20791;-66
2021/10/22 12:14:43;;;;;;;0.30;0.30;;;;;;;;;;4974044;28;20937;-65
2021/10/22 12:17:13;;;;;;;0.20;0.20;;;;;;;;;;4976829;28;20400;-66
2021/10/22 12:19:40;;;;;;;0.20;0.20;;;;;;;;;;4976711;28;20407;-66
2021/10/22 12:22:06;;;;;;;0.30;0.30;;;;;;;;;;4976398;28;20450;-66
2021/10/22 12:24:39;;;;;;;0.20;0.20;;;;;;;;;;4976532;28;20417;-66
2021/10/22 12:27:06;;;;;;;0.20;0.20;;;;;;;;;;4976505;28;20796;-65
2021/10/22 12:29:54;;;;;;;0.30;0.30;;;;;;;;;;4976523;28;20436;-65
2021/10/22 12:32:27;;;;;;;0.30;0.30;;;;;;;;;;4976308;28;20421;-65
2021/10/22 12:34:54;;;;;;;0.30;0.30;;;;;;;;;;4976198;28;20442;-65
2021/10/22 12:37:30;;;;;;;0.30;0.30;;;;;;;;;;4975797;28;20381;-65
2021/10/22 12:39:56;;;;;;;0.30;0.30;;;;;;;;;;4958848;28;20414;-66
2021/10/22 12:42:27;;;;;;;0.30;0.30;;;;;;;;;;4975886;28;20480;-66
2021/10/22 12:45:11;;;;;;;0.30;0.30;;;;;;;;;;4976004;28;20537;-66
2021/10/22 12:47:38;;;;;;;0.30;0.30;;;;;;;;;;4976032;28;20380;-67
2021/10/22 12:50:04;;;;;;;0.30;0.30;;;;;;;;;;4975917;28;20418;-67
2021/10/22 12:52:30;;;;;;;0.30;0.30;;;;;;;;;;4976174;28;20406;-67
2021/10/22 12:54:56;;;;;;;0.30;0.30;;;;;;;;;;5041650;22;20867;-66
2021/10/22 12:57:23;;;;;;;0.30;0.30;;;;;;;;;;5054633;28;20382;-66
2021/10/22 12:59:50;;;;;;;0.30;0.30;;;;;;;;;;5054627;28;20377;-66
2021/10/22 13:02:30;;;;;;;0.40;0.40;;;;;;;;;;5054073;28;20453;-66
2021/10/22 13:05:12;;;;;;;0.30;0.30;;;;;;;;;;5022057;28;20414;-65
2021/10/22 13:07:58;;;;;;;0.30;0.30;;;;;;;;;;5014647;28;20431;-66
2021/10/22 13:13:49;;;;;;;0.30;0.30;;;;;;;;;;5009854;28;20842;-66
2021/10/22 13:21:46;;;;;;;0.30;0.30;;;;;;;;;;5014057;28;20768;-65
2021/10/22 13:24:12;;;;;;;0.30;0.30;;;;;;;;;;5014294;28;20790;-66
2021/10/22 13:26:41;;;;;;;0.30;0.30;;;;;;;;;;5013542;28;20409;-66
2021/10/22 13:29:07;;;;;;;0.30;0.30;;;;;;;;;;5014230;28;20432;-66
2021/10/22 13:31:37;;;;;;;0.30;0.30;;;;;;;;;;5014082;28;20447;-67
2021/10/22 13:34:03;;;;;;;0.30;0.30;;;;;;;;;;5014115;28;20427;-68
2021/10/22 13:36:29;;;;;;;0.30;0.30;;;;;;;;;;5014293;28;20176;-67
2021/10/22 13:38:55;;;;;;;0.30;0.30;;;;;;;;;;5013659;28;20441;-67
2021/10/22 13:41:23;;;;;;;0.40;0.40;;;;;;;;;;5013680;28;20489;-66
2021/10/22 13:43:49;;;;;;;0.30;0.30;;;;;;;;;;5013709;28;20517;-67
2021/10/22 13:46:15;;;;;;;0.40;0.40;;;;;;;;;;5014065;28;20171;-67
2021/10/22 13:48:41;;;;;;;0.30;0.30;;;;;;;;;;5013894;28;20398;-67
2021/10/22 13:51:07;;;;;;;0.40;0.40;;;;;;;;;;5013600;28;20404;-67
2021/10/22 13:53:33;;;;;;;0.30;0.30;;;;;;;;;;5013683;28;20524;-67
2021/10/22 13:55:59;;;;;;;0.40;0.40;;;;;;;;;;5013625;28;20216;-67
2021/10/22 13:58:25;;;;;;;0.30;0.30;;;;;;;;;;5013623;28;20417;-67
2021/10/22 14:00:51;;;;;;;0.40;0.40;;;;;;;;;;5028632;28;20451;-67
2021/10/22 14:03:17;;;;;;;0.40;0.40;;;;;;;;;;5012621;28;20526;-67
2021/10/22 14:05:44;;;;;;;0.40;0.40;;;;;;;;;;5013500;28;20871;-66
2021/10/22 14:08:10;;;;;;;0.32;0.32;;;;;;;;;;5013560;28;20170;-67
2021/10/22 14:10:38;;;;;;;0.30;0.30;;;;;;;;;;5013309;28;20173;-67
2021/10/22 14:13:18;;;;;;;0.40;0.40;;;;;;;;;;5013390;28;20256;-67
2021/10/22 14:19:05;;;;;;;0.40;0.40;;;;;;;;;;5013144;28;20182;-67
2021/10/22 14:24:02;;;;;;;0.30;0.30;;;;;;;;;;5013405;28;20209;-67
2021/10/22 14:29:15;;;;;;;0.40;0.40;;;;;;;;;;5013122;28;20208;-67
2021/10/22 14:31:42;;;;;;;0.40;0.40;;;;;;;;;;5012795;28;20220;-67
2021/10/22 14:34:08;;;;;;;0.30;0.30;;;;;;;;;;5012552;28;20660;-67
2021/10/22 14:36:34;;;;;;;0.40;0.40;;;;;;;;;;5012731;28;20169;-67
2021/10/22 14:39:00;;;;;;;0.40;0.40;;;;;;;;;;5012510;28;20184;-67
2021/10/22 14:41:27;;;;;;;0.40;0.40;;;;;;;;;;5028021;28;20182;-67
2021/10/22 14:44:02;;;;;;;0.40;0.40;;;;;;;;;;5012685;28;20795;-67
2021/10/22 14:46:30;;;;;;;0.38;0.38;;;;;;;;;;5012796;28;20185;-68
2021/10/22 14:48:59;;;;;;;0.30;0.30;;;;;;;;;;5012693;28;20173;-67
2021/10/22 14:51:40;;;;;;;0.38;0.38;;;;;;;;;;5012367;28;20169;-67
2021/10/22 14:54:07;;;;;;;0.40;0.40;;;;;;;;;;5012613;28;20231;-67
2021/10/22 14:56:33;;;;;;;0.40;0.40;;;;;;;;;;5028049;28;20182;-68
2021/10/22 14:58:59;;;;;;;0.30;0.30;;;;;;;;;;5012602;28;20227;-67
2021/10/22 15:01:28;;;;;;;0.30;0.30;;;;;;;;;;5027128;28;20847;-67
2021/10/22 15:03:54;;;;;;;0.40;0.40;;;;;;;;;;5012538;28;20619;-68
2021/10/22 15:06:23;;;;;;;0.40;0.40;;;;;;;;;;5012476;28;20169;-67
2021/10/22 15:08:49;;;;;;;0.30;0.30;;;;;;;;;;5012593;28;20470;-67
2021/10/22 15:11:16;;;;;;;0.40;0.40;;;;;;;;;;5012035;28;20166;-67
2021/10/22 15:13:42;;;;;;;0.30;0.30;;;;;;;;;;5011903;28;20185;-68
2021/10/22 15:16:08;;;;;;;0.30;0.30;;;;;;;;;;5012417;28;20177;-67
2021/10/22 15:18:34;;;;;;;0.40;0.40;;;;;;;;;;5012243;28;20514;-68
2021/10/22 15:21:00;;;;;;;0.30;0.30;;;;;;;;;;5012071;28;20411;-67
2021/10/22 15:23:26;;;;;;;0.40;0.40;;;;;;;;;;5011562;28;20495;-67
2021/10/22 15:25:53;;;;;;;0.40;0.40;;;;;;;;;;5011991;28;20281;-67
2021/10/22 15:28:19;;;;;;;0.40;0.40;;;;;;;;;;5012155;28;20180;-67
2021/10/22 15:30:45;;;;;;;0.40;0.40;;;;;;;;;;5027116;28;20169;-67
2021/10/22 15:33:12;;;;;;;0.30;0.30;;;;;;;;;;5012088;28;20216;-67